createdAt,value
2018-06-10T00:00:38.065Z,81.52
2018-06-10T00:01:38.019Z,82.1
2018-06-10T00:02:38.091Z,82.25
2018-06-10T00:03:38.093Z,81.78
2018-06-10T00:04:38.028Z,82.04
2018-06-10T00:05:38.037Z,82.01
2018-06-10T00:06:38.019Z,82.1
2018-06-10T00:07:38.018Z,81.77
2018-06-10T00:08:38.015Z,81.83
2018-06-10T00:09:38.002Z,82.35
2018-06-10T00:10:38.031Z,82.09
2018-06-10T00:11:38.004Z,81.66
2018-06-10T00:12:38.020Z,81.85
2018-06-10T00:13:38.049Z,81.87
2018-06-10T00:14:38.033Z,81.92
2018-06-10T00:15:38.004Z,81.68
2018-06-10T00:16:38.009Z,81.59
2018-06-10T00:17:38.030Z,81.56
2018-06-10T00:18:38.085Z,81.34
2018-06-10T00:19:38.299Z,81.72
2018-06-10T00:20:38.027Z,81.7
2018-06-10T00:21:38.023Z,81.94
2018-06-10T00:22:38.024Z,81.82
2018-06-10T00:23:38.027Z,82.27
2018-06-10T00:24:38.075Z,82.08
2018-06-10T00:25:38.023Z,81.66
2018-06-10T00:26:38.044Z,81.44
2018-06-10T00:27:38.021Z,81.39
2018-06-10T00:28:38.022Z,81.55
2018-06-10T00:29:38.041Z,81.21
2018-06-10T00:30:38.035Z,81.17
2018-06-10T00:31:38.009Z,81.07
2018-06-10T00:32:38.029Z,80.85
2018-06-10T00:33:38.014Z,80.88
2018-06-10T00:34:38.030Z,80.92
2018-06-10T00:35:38.154Z,81.05
2018-06-10T00:36:38.007Z,81.29
2018-06-10T00:37:38.008Z,81.04
2018-06-10T00:38:38.013Z,80.86
2018-06-10T00:39:38.007Z,81.22
2018-06-10T00:40:37.995Z,80.87
2018-06-10T00:41:38.007Z,80.82
2018-06-10T00:42:38.130Z,81.26
2018-06-10T00:43:38.041Z,81.09
2018-06-10T00:44:38.022Z,81.21
2018-06-10T00:45:38.024Z,80.78
2018-06-10T00:46:38.024Z,81.14
2018-06-10T00:47:38.015Z,81.12
2018-06-10T00:48:38.035Z,81.17
2018-06-10T00:49:37.998Z,81.31
2018-06-10T00:50:38.071Z,81.42
2018-06-10T00:51:38.025Z,81.14
2018-06-10T00:52:38.034Z,81.04
2018-06-10T00:53:38.035Z,81.02
2018-06-10T00:54:38.031Z,81.1
2018-06-10T00:55:38.019Z,80.92
2018-06-10T00:56:38.019Z,80.92
2018-06-10T00:57:38.014Z,81.12
2018-06-10T00:58:38.035Z,81.14
2018-06-10T00:59:38.186Z,81.08
2018-06-10T01:00:38.022Z,81.09
2018-06-10T01:01:38.129Z,80.83
2018-06-10T01:02:38.043Z,80.82
2018-06-10T01:03:37.981Z,80.83
2018-06-10T01:04:38.014Z,80.76
2018-06-10T01:05:38.000Z,81.17
2018-06-10T01:06:38.013Z,81.05
2018-06-10T01:07:38.013Z,80.79
2018-06-10T01:08:38.034Z,80.63
2018-06-10T01:09:38.000Z,80.5
2018-06-10T01:10:38.000Z,80.43
2018-06-10T01:11:37.993Z,80.48
2018-06-10T01:12:38.008Z,80.28
2018-06-10T01:13:38.012Z,80.18
2018-06-10T01:14:38.034Z,80.37
2018-06-10T01:15:37.992Z,80.62
2018-06-10T01:16:38.066Z,80.56
2018-06-10T01:17:38.016Z,80.34
2018-06-10T01:18:38.014Z,80.32
2018-06-10T01:19:38.124Z,80.85
2018-06-10T01:20:38.030Z,80.39
2018-06-10T01:21:38.043Z,80.35
2018-06-10T01:22:37.988Z,80.41
2018-06-10T01:23:38.042Z,80.3
2018-06-10T01:24:38.003Z,80.27
2018-06-10T01:25:38.132Z,80.3
2018-06-10T01:26:38.019Z,80.33
2018-06-10T01:27:37.995Z,80.22
2018-06-10T01:28:38.034Z,80.12
2018-06-10T01:29:38.073Z,80.35
2018-06-10T01:30:38.015Z,80.27
2018-06-10T01:31:38.086Z,80.28
2018-06-10T01:32:38.010Z,80.21
2018-06-10T01:33:37.988Z,80.28
2018-06-10T01:34:38.016Z,80.38
2018-06-10T01:35:38.119Z,80.42
2018-06-10T01:36:37.996Z,80.6
2018-06-10T01:37:38.064Z,80.36
2018-06-10T01:38:37.997Z,80.25
2018-06-10T01:39:37.983Z,80.81
2018-06-10T01:40:37.988Z,81.21
2018-06-10T01:41:38.022Z,80.82
2018-06-10T01:42:38.050Z,80.95
2018-06-10T01:43:38.000Z,80.58
2018-06-10T01:44:38.052Z,80.4
2018-06-10T01:45:38.014Z,81.05
2018-06-10T01:46:37.989Z,81.08
2018-06-10T01:47:37.991Z,80.64
2018-06-10T01:48:37.970Z,81.05
2018-06-10T01:49:38.024Z,80.87
2018-06-10T01:50:37.973Z,80.53
2018-06-10T01:51:38.003Z,80.81
2018-06-10T01:52:37.991Z,80.61
2018-06-10T01:53:37.984Z,80.58
2018-06-10T01:54:37.984Z,80.53
2018-06-10T01:55:37.982Z,80.35
2018-06-10T01:56:38.015Z,80.59
2018-06-10T01:57:37.996Z,80.52
2018-06-10T01:58:37.979Z,80.83
2018-06-10T01:59:37.990Z,80.48
2018-06-10T02:00:37.940Z,80.42
2018-06-10T02:01:37.979Z,80.45
2018-06-10T02:02:37.986Z,80.13
2018-06-10T02:03:37.975Z,80.37
2018-06-10T02:04:38.006Z,80.47
2018-06-10T02:05:37.980Z,80.61
2018-06-10T02:06:37.976Z,80.52
2018-06-10T02:07:37.980Z,80.48
2018-06-10T02:08:37.993Z,80.58
2018-06-10T02:09:37.987Z,80.29
2018-06-10T02:10:38.111Z,80.26
2018-06-10T02:11:38.027Z,80.32
2018-06-10T02:12:38.295Z,80.17
2018-06-10T02:13:38.033Z,80.2
2018-06-10T02:14:38.212Z,80.17
2018-06-10T02:15:37.992Z,80.1
2018-06-10T02:16:38.013Z,80.08
2018-06-10T02:17:38.238Z,80.26
2018-06-10T02:18:37.984Z,80.19
2018-06-10T02:19:37.997Z,80.09
2018-06-10T02:20:38.107Z,80.34
2018-06-10T02:21:37.998Z,80.12
2018-06-10T02:22:37.981Z,80.19
2018-06-10T02:23:38.075Z,80.43
2018-06-10T02:24:38.010Z,80.31
2018-06-10T02:25:37.985Z,80.63
2018-06-10T02:26:37.993Z,80.69
2018-06-10T02:27:37.974Z,80.68
2018-06-10T02:28:37.974Z,80.62
2018-06-10T02:29:37.987Z,80.64
2018-06-10T02:30:37.982Z,80.61
2018-06-10T02:31:37.996Z,80.64
2018-06-10T02:32:38.029Z,80.77
2018-06-10T02:33:37.971Z,80.74
2018-06-10T02:34:38.424Z,80.69
2018-06-10T02:35:37.993Z,80.86
2018-06-10T02:36:38.126Z,80.58
2018-06-10T02:37:38.002Z,80.7
2018-06-10T02:38:38.017Z,80.64
2018-06-10T02:39:37.976Z,81.05
2018-06-10T02:40:37.985Z,80.57
2018-06-10T02:41:37.979Z,80.62
2018-06-10T02:42:38.004Z,80.63
2018-06-10T02:43:38.232Z,80.58
2018-06-10T02:44:38.179Z,81.32
2018-06-10T02:45:37.992Z,81.14
2018-06-10T02:46:37.976Z,80.72
2018-06-10T02:47:37.994Z,81.26
2018-06-10T02:48:37.986Z,81.25
2018-06-10T02:49:38.015Z,80.85
2018-06-10T02:50:38.053Z,80.88
2018-06-10T02:51:38.288Z,80.9
2018-06-10T02:52:37.994Z,80.79
2018-06-10T02:53:38.003Z,80.75
2018-06-10T02:54:37.995Z,80.76
2018-06-10T02:55:38.063Z,81.21
2018-06-10T02:56:38.147Z,81.67
2018-06-10T02:57:38.034Z,81.69
2018-06-10T02:58:37.993Z,81.7
2018-06-10T02:59:37.979Z,82.02
2018-06-10T03:00:37.972Z,81.82
2018-06-10T03:01:38.013Z,81.63
2018-06-10T03:02:37.994Z,81.68
2018-06-10T03:03:38.007Z,81.84
2018-06-10T03:04:37.995Z,81.73
2018-06-10T03:05:37.972Z,81.74
2018-06-10T03:06:37.971Z,81.64
2018-06-10T03:07:38.008Z,81.49
2018-06-10T03:08:37.976Z,81.56
2018-06-10T03:09:37.977Z,81.62
2018-06-10T03:10:37.985Z,81.64
2018-06-10T03:11:37.951Z,81.87
2018-06-10T03:12:37.965Z,81.85
2018-06-10T03:13:37.996Z,81.79
2018-06-10T03:14:37.977Z,81.91
2018-06-10T03:15:37.970Z,82.24
2018-06-10T03:16:38.031Z,81.94
2018-06-10T03:17:37.957Z,81.99
2018-06-10T03:18:37.959Z,81.94
2018-06-10T03:19:37.970Z,81.82
2018-06-10T03:20:37.968Z,81.95
2018-06-10T03:21:38.151Z,81.53
2018-06-10T03:22:37.974Z,81.81
2018-06-10T03:23:38.236Z,81.79
2018-06-10T03:24:37.996Z,81.71
2018-06-10T03:25:38.099Z,81.64
2018-06-10T03:26:38.288Z,81.78
2018-06-10T03:27:37.977Z,81.5
2018-06-10T03:28:37.983Z,81.52
2018-06-10T03:29:38.013Z,81.47
2018-06-10T03:30:38.004Z,81.55
2018-06-10T03:31:38.057Z,81.35
2018-06-10T03:32:37.977Z,81.6
2018-06-10T03:33:37.998Z,81.98
2018-06-10T03:34:38.242Z,81.77
2018-06-10T03:35:38.003Z,82.02
2018-06-10T03:36:37.979Z,81.71
2018-06-10T03:37:38.014Z,81.74
2018-06-10T03:38:37.974Z,81.6
2018-06-10T03:39:37.985Z,81.68
2018-06-10T03:40:37.982Z,81.61
2018-06-10T03:41:38.040Z,82.34
2018-06-10T03:42:38.005Z,82.03
2018-06-10T03:43:37.949Z,82.18
2018-06-10T03:44:37.983Z,82.18
2018-06-10T03:45:37.981Z,81.77
2018-06-10T03:46:37.961Z,81.76
2018-06-10T03:47:37.978Z,81.89
2018-06-10T03:48:38.031Z,81.63
2018-06-10T03:49:37.961Z,81.79
2018-06-10T03:50:38.044Z,82.35
2018-06-10T03:51:37.988Z,81.77
2018-06-10T03:52:37.976Z,82.83
2018-06-10T03:53:38.020Z,82.15
2018-06-10T03:54:37.982Z,81.98
2018-06-10T03:55:37.994Z,82.33
2018-06-10T03:56:37.991Z,82.28
2018-06-10T03:57:38.019Z,82.36
2018-06-10T03:58:38.008Z,82.17
2018-06-10T03:59:37.995Z,82.11
2018-06-10T04:00:37.966Z,82.44
2018-06-10T04:01:38.019Z,82.36
2018-06-10T04:02:38.044Z,82.2
2018-06-10T04:03:38.121Z,82.4
2018-06-10T04:04:38.069Z,82.22
2018-06-10T04:05:37.991Z,82.33
2018-06-10T04:06:38.034Z,82.47
2018-06-10T04:07:37.975Z,82.42
2018-06-10T04:08:37.990Z,82.49
2018-06-10T04:09:37.958Z,82.18
2018-06-10T04:10:37.997Z,81.97
2018-06-10T04:11:37.945Z,81.87
2018-06-10T04:12:37.959Z,82.06
2018-06-10T04:13:37.950Z,82.15
2018-06-10T04:14:38.013Z,81.99
2018-06-10T04:15:37.990Z,82.16
2018-06-10T04:16:37.934Z,81.82
2018-06-10T04:17:37.952Z,81.91
2018-06-10T04:18:37.975Z,82.35
2018-06-10T04:19:37.940Z,82.32
2018-06-10T04:20:37.989Z,82.42
2018-06-10T04:21:37.939Z,82.08
2018-06-10T04:22:38.250Z,82.01
2018-06-10T04:23:37.927Z,82.35
2018-06-10T04:24:37.942Z,82.13
2018-06-10T04:25:37.956Z,82.1
2018-06-10T04:26:37.954Z,81.92
2018-06-10T04:27:37.939Z,81.99
2018-06-10T04:28:37.941Z,81.92
2018-06-10T04:29:37.940Z,81.88
2018-06-10T04:30:38.003Z,81.78
2018-06-10T04:31:37.971Z,81.7
2018-06-10T04:32:37.992Z,82.01
2018-06-10T04:33:38.058Z,82.22
2018-06-10T04:34:37.958Z,81.91
2018-06-10T04:35:37.984Z,81.77
2018-06-10T04:36:38.084Z,81.8
2018-06-10T04:37:38.027Z,82.02
2018-06-10T04:38:37.983Z,81.9
2018-06-10T04:39:37.929Z,81.87
2018-06-10T04:40:37.945Z,81.77
2018-06-10T04:41:37.958Z,81.74
2018-06-10T04:42:37.928Z,81.83
2018-06-10T04:43:38.150Z,82.2
2018-06-10T04:44:37.916Z,82.37
2018-06-10T04:45:37.939Z,82.12
2018-06-10T04:46:38.022Z,82.13
2018-06-10T04:47:38.026Z,82.48
2018-06-10T04:48:38.011Z,82.64
2018-06-10T04:49:37.959Z,82.52
2018-06-10T04:50:38.014Z,82.3
2018-06-10T04:51:37.947Z,82.79
2018-06-10T04:52:37.963Z,82.81
2018-06-10T04:53:37.951Z,82.69
2018-06-10T04:54:37.986Z,82.77
2018-06-10T04:55:37.925Z,83.32
2018-06-10T04:56:37.948Z,83.37
2018-06-10T04:57:37.967Z,82.91
2018-06-10T04:58:38.107Z,83.34
2018-06-10T04:59:38.013Z,83.1
2018-06-10T05:00:38.042Z,82.91
2018-06-10T05:01:38.024Z,82.79
2018-06-10T05:02:37.971Z,82.89
2018-06-10T05:03:38.038Z,82.64
2018-06-10T05:04:37.973Z,82.49
2018-06-10T05:05:37.922Z,82.51
2018-06-10T05:06:38.011Z,82.31
2018-06-10T05:07:37.989Z,82.38
2018-06-10T05:08:37.932Z,82.29
2018-06-10T05:09:37.953Z,82.25
2018-06-10T05:10:37.962Z,82.11
2018-06-10T05:11:37.999Z,82.26
2018-06-10T05:12:38.044Z,82.14
2018-06-10T05:13:38.089Z,82.31
2018-06-10T05:14:37.924Z,82.15
2018-06-10T05:15:37.987Z,82.12
2018-06-10T05:16:38.009Z,82.43
2018-06-10T05:17:37.952Z,82.29
2018-06-10T05:18:37.948Z,82.27
2018-06-10T05:19:38.402Z,82.2
2018-06-10T05:20:37.963Z,82.16
2018-06-10T05:21:39.198Z,82.23
2018-06-10T05:22:37.932Z,82.22
2018-06-10T05:23:37.941Z,82.25
2018-06-10T05:24:37.913Z,82.48
2018-06-10T05:25:37.920Z,82.54
2018-06-10T05:26:37.962Z,82.46
2018-06-10T05:27:37.924Z,82.16
2018-06-10T05:28:37.914Z,82.26
2018-06-10T05:29:37.958Z,82.31
2018-06-10T05:30:37.940Z,82.6
2018-06-10T05:31:37.971Z,82.32
2018-06-10T05:32:37.932Z,82.47
2018-06-10T05:33:37.930Z,82.45
2018-06-10T05:34:37.973Z,82.28
2018-06-10T05:35:37.958Z,82.6
2018-06-10T05:36:37.972Z,82.5
2018-06-10T05:37:37.941Z,82.78
2018-06-10T05:38:38.213Z,82.35
2018-06-10T05:39:37.909Z,82.34
2018-06-10T05:40:38.000Z,82.1
2018-06-10T05:41:37.924Z,82.39
2018-06-10T05:42:37.942Z,82.25
2018-06-10T05:43:38.057Z,82.85
2018-06-10T05:44:37.981Z,82.49
2018-06-10T05:45:38.013Z,82.28
2018-06-10T05:46:38.122Z,82.1
2018-06-10T05:47:37.999Z,82.49
2018-06-10T05:48:37.971Z,82.15
2018-06-10T05:49:37.964Z,82.33
2018-06-10T05:50:38.025Z,82.19
2018-06-10T05:51:37.939Z,81.95
2018-06-10T05:52:37.961Z,81.6
2018-06-10T05:53:37.991Z,81.29
2018-06-10T05:54:38.026Z,81.46
2018-06-10T05:55:38.104Z,81.61
2018-06-10T05:56:38.034Z,81.36
2018-06-10T05:57:38.122Z,81.48
2018-06-10T05:58:37.918Z,81.64
2018-06-10T05:59:38.066Z,81.35
2018-06-10T06:00:37.942Z,81.65
2018-06-10T06:01:37.926Z,81.26
2018-06-10T06:02:37.929Z,81.17
2018-06-10T06:03:37.974Z,81.12
2018-06-10T06:04:37.969Z,81.15
2018-06-10T06:05:38.034Z,81.09
2018-06-10T06:06:37.984Z,81.25
2018-06-10T06:07:37.991Z,81.25
2018-06-10T06:08:37.945Z,81.6
2018-06-10T06:09:37.895Z,81.43
2018-06-10T06:10:38.022Z,81.36
2018-06-10T06:11:38.040Z,81.42
2018-06-10T06:12:37.957Z,81.79
2018-06-10T06:13:37.950Z,81.74
2018-06-10T06:14:37.956Z,82.23
2018-06-10T06:15:37.979Z,82.28
2018-06-10T06:16:37.949Z,82.1
2018-06-10T06:17:37.967Z,82.63
2018-06-10T06:18:38.082Z,81.82
2018-06-10T06:19:38.173Z,81.97
2018-06-10T06:20:37.975Z,81.93
2018-06-10T06:21:37.919Z,82.08
2018-06-10T06:22:37.917Z,81.96
2018-06-10T06:23:37.928Z,81.73
2018-06-10T06:24:38.011Z,81.47
2018-06-10T06:25:37.978Z,81.79
2018-06-10T06:26:38.105Z,81.68
2018-06-10T06:27:37.997Z,82.16
2018-06-10T06:28:37.910Z,82.03
2018-06-10T06:29:38.022Z,81.98
2018-06-10T06:30:43.173Z,81.79
2018-06-10T06:31:38.026Z,81.4
2018-06-10T06:32:37.987Z,82.12
2018-06-10T06:33:38.090Z,81.68
2018-06-10T06:34:37.895Z,81.65
2018-06-10T06:35:37.926Z,81.58
2018-06-10T06:36:37.915Z,81.14
2018-06-10T06:37:37.897Z,81.29
2018-06-10T06:38:37.919Z,80.85
2018-06-10T06:39:37.923Z,80.59
2018-06-10T06:40:37.962Z,80.16
2018-06-10T06:41:37.908Z,80.35
2018-06-10T06:42:37.906Z,80.54
2018-06-10T06:43:37.950Z,80.73
2018-06-10T06:44:37.929Z,80.58
2018-06-10T06:45:37.903Z,80.62
2018-06-10T06:46:37.913Z,80.49
2018-06-10T06:47:37.956Z,80.98
2018-06-10T06:48:37.988Z,80.85
2018-06-10T06:49:37.908Z,80.7
2018-06-10T06:50:37.947Z,80.84
2018-06-10T06:51:37.895Z,80.85
2018-06-10T06:52:38.594Z,80.58
2018-06-10T06:53:37.907Z,80.55
2018-06-10T06:54:37.922Z,80.05
2018-06-10T06:55:37.944Z,80.11
2018-06-10T06:56:38.033Z,80.7
2018-06-10T06:57:38.024Z,80.45
2018-06-10T06:58:37.884Z,80.65
2018-06-10T06:59:38.005Z,80.63
2018-06-10T07:00:38.185Z,80.83
2018-06-10T07:01:37.937Z,80.57
2018-06-10T07:02:37.907Z,80.36
2018-06-10T07:03:38.085Z,80.45
2018-06-10T07:04:37.986Z,80.45
2018-06-10T07:05:38.179Z,79.94
2018-06-10T07:06:38.009Z,79.98
2018-06-10T07:07:38.097Z,79.78
2018-06-10T07:08:37.990Z,79.96
2018-06-10T07:09:37.957Z,79.97
2018-06-10T07:10:38.008Z,79.98
2018-06-10T07:11:38.453Z,80.19
2018-06-10T07:12:37.970Z,80.11
2018-06-10T07:13:37.888Z,80.05
2018-06-10T07:14:38.059Z,79.98
2018-06-10T07:15:37.912Z,79.69
2018-06-10T07:16:38.105Z,79.53
2018-06-10T07:17:38.045Z,79.49
2018-06-10T07:18:37.917Z,79.77
2018-06-10T07:19:38.002Z,79.96
2018-06-10T07:20:37.899Z,80.13
2018-06-10T07:21:37.972Z,79.89
2018-06-10T07:22:37.909Z,79.87
2018-06-10T07:23:38.130Z,79.94
2018-06-10T07:24:38.069Z,79.67
2018-06-10T07:25:38.043Z,79.56
2018-06-10T07:26:38.101Z,79.88
2018-06-10T07:27:38.028Z,79.79
2018-06-10T07:28:37.908Z,79.52
2018-06-10T07:29:37.878Z,79.66
2018-06-10T07:30:38.026Z,79.62
2018-06-10T07:31:37.884Z,79.13
2018-06-10T07:32:38.012Z,78.73
2018-06-10T07:33:38.049Z,78.71
2018-06-10T07:34:37.950Z,78.19
2018-06-10T07:35:38.038Z,77.88
2018-06-10T07:36:38.009Z,77.71
2018-06-10T07:37:38.051Z,77.4
2018-06-10T07:38:37.959Z,76.71
2018-06-10T07:39:37.933Z,76.75
2018-06-10T07:40:38.333Z,76
2018-06-10T07:41:37.950Z,76.76
2018-06-10T07:42:37.888Z,76.6
2018-06-10T07:43:38.062Z,75.93
2018-06-10T07:44:38.148Z,76.16
2018-06-10T07:45:37.972Z,77.3
2018-06-10T07:46:37.952Z,76.55
2018-06-10T07:47:37.920Z,76.37
2018-06-10T07:48:38.282Z,77.67
2018-06-10T07:49:37.872Z,76.31
2018-06-10T07:50:37.907Z,77.32
2018-06-10T07:51:37.874Z,77.06
2018-06-10T07:52:38.872Z,76.83
2018-06-10T07:53:37.898Z,76.56
2018-06-10T07:54:37.885Z,76.62
2018-06-10T07:55:37.915Z,77.09
2018-06-10T07:56:37.872Z,76.68
2018-06-10T07:57:37.916Z,76.67
2018-06-10T07:58:37.881Z,76.45
2018-06-10T07:59:37.900Z,76.87
2018-06-10T08:00:37.896Z,76.62
2018-06-10T08:01:37.852Z,76.15
2018-06-10T08:02:37.899Z,76.41
2018-06-10T08:03:37.884Z,76.78
2018-06-10T08:04:37.885Z,77.13
2018-06-10T08:05:37.901Z,76.94
2018-06-10T08:06:38.026Z,76.85
2018-06-10T08:07:37.993Z,76.8
2018-06-10T08:08:37.868Z,76.94
2018-06-10T08:09:37.966Z,76.73
2018-06-10T08:10:37.895Z,77.26
2018-06-10T08:11:37.993Z,76.6
2018-06-10T08:12:37.945Z,75.47
2018-06-10T08:13:38.342Z,75.32
2018-06-10T08:14:37.979Z,75.68
2018-06-10T08:15:37.963Z,76.17
2018-06-10T08:16:37.970Z,76.48
2018-06-10T08:17:37.849Z,76.8
2018-06-10T08:18:38.080Z,76.55
2018-06-10T08:19:37.967Z,76.94
2018-06-10T08:20:37.850Z,76.19
2018-06-10T08:21:37.995Z,75.27
2018-06-10T08:22:37.942Z,76.21
2018-06-10T08:23:38.003Z,74.74
2018-06-10T08:24:37.844Z,74.68
2018-06-10T08:25:38.009Z,74.55
2018-06-10T08:26:37.894Z,75.05
2018-06-10T08:27:37.870Z,75.07
2018-06-10T08:28:38.016Z,75.56
2018-06-10T08:29:37.948Z,75.2
2018-06-10T08:30:37.929Z,75.37
2018-06-10T08:31:37.955Z,75.19
2018-06-10T08:32:37.993Z,74.95
2018-06-10T08:33:37.973Z,74.66
2018-06-10T08:34:37.851Z,74.41
2018-06-10T08:35:38.002Z,73.77
2018-06-10T08:36:38.005Z,74.39
2018-06-10T08:37:37.846Z,74.23
2018-06-10T08:38:37.875Z,74.34
2018-06-10T08:39:37.856Z,74.58
2018-06-10T08:40:37.965Z,73.65
2018-06-10T08:41:37.983Z,73.03
2018-06-10T08:42:37.992Z,73.72
2018-06-10T08:43:37.955Z,74.05
2018-06-10T08:44:37.861Z,73.95
2018-06-10T08:45:37.855Z,72.99
2018-06-10T08:46:37.884Z,73.99
2018-06-10T08:47:37.851Z,73.73
2018-06-10T08:48:38.111Z,73.02
2018-06-10T08:49:37.882Z,73.53
2018-06-10T08:50:38.073Z,73.11
2018-06-10T08:51:37.863Z,72.87
2018-06-10T08:52:37.855Z,73.46
2018-06-10T08:53:37.892Z,72.12
2018-06-10T08:54:37.848Z,71.83
2018-06-10T08:55:38.012Z,72.05
2018-06-10T08:56:37.836Z,72.15
2018-06-10T08:57:38.000Z,72.13
2018-06-10T08:58:37.855Z,72.24
2018-06-10T08:59:37.914Z,71.34
2018-06-10T09:00:37.846Z,71.04
2018-06-10T09:01:37.860Z,70.49
2018-06-10T09:02:38.028Z,70.64
2018-06-10T09:03:37.847Z,71.51
2018-06-10T09:04:37.844Z,72.21
2018-06-10T09:05:37.836Z,73
2018-06-10T09:06:37.881Z,72.12
2018-06-10T09:07:37.872Z,72.21
2018-06-10T09:08:38.221Z,71.51
2018-06-10T09:09:37.834Z,71.5
2018-06-10T09:10:37.839Z,72.35
2018-06-10T09:11:37.852Z,71.72
2018-06-10T09:12:37.833Z,71.13
2018-06-10T09:13:37.880Z,71.87
2018-06-10T09:14:37.844Z,71.58
2018-06-10T09:15:37.847Z,71.63
2018-06-10T09:16:41.174Z,71.97
2018-06-10T09:17:37.861Z,71.14
2018-06-10T09:18:37.864Z,71.52
2018-06-10T09:19:37.881Z,72.05
2018-06-10T09:20:37.871Z,70.56
2018-06-10T09:21:39.461Z,70.68
2018-06-10T09:22:37.988Z,70.79
2018-06-10T09:23:37.850Z,72.03
2018-06-10T09:24:37.885Z,70.97
2018-06-10T09:25:38.039Z,71.41
2018-06-10T09:26:37.887Z,70.82
2018-06-10T09:27:38.082Z,70.25
2018-06-10T09:28:37.985Z,69.95
2018-06-10T09:29:37.993Z,70.35
2018-06-10T09:30:37.866Z,70.31
2018-06-10T09:31:37.854Z,70.59
2018-06-10T09:32:38.083Z,70.36
2018-06-10T09:33:37.868Z,70.09
2018-06-10T09:34:38.046Z,70.76
2018-06-10T09:35:37.836Z,69.37
2018-06-10T09:36:38.010Z,70.15
2018-06-10T09:37:38.148Z,69.88
2018-06-10T09:38:37.858Z,70.3
2018-06-10T09:39:38.148Z,70.75
2018-06-10T09:40:38.086Z,70.11
2018-06-10T09:41:38.135Z,70.18
2018-06-10T09:42:38.060Z,70.29
2018-06-10T09:43:37.866Z,69.61
2018-06-10T09:44:37.962Z,69.69
2018-06-10T09:45:37.849Z,69.56
2018-06-10T09:46:37.856Z,69.48
2018-06-10T09:47:37.865Z,68.74
2018-06-10T09:48:37.849Z,69.12
2018-06-10T09:49:37.954Z,69.09
2018-06-10T09:50:37.843Z,69.45
2018-06-10T09:51:37.853Z,70.1
2018-06-10T09:52:38.043Z,69.54
2018-06-10T09:53:37.849Z,69.31
2018-06-10T09:54:37.984Z,69.13
2018-06-10T09:55:38.979Z,69.92
2018-06-10T09:56:37.844Z,68.88
2018-06-10T09:57:37.832Z,68.55
2018-06-10T09:58:37.861Z,68.65
2018-06-10T09:59:38.047Z,69.14
2018-06-10T10:00:37.954Z,68.11
2018-06-10T10:01:38.086Z,68.12
2018-06-10T10:02:37.972Z,68.4
2018-06-10T10:03:37.972Z,68.06
2018-06-10T10:04:37.980Z,67.51
2018-06-10T10:05:38.092Z,67.67
2018-06-10T10:06:38.123Z,68.13
2018-06-10T10:07:37.822Z,68.62
2018-06-10T10:08:37.835Z,67.8
2018-06-10T10:09:37.857Z,67.63
2018-06-10T10:10:38.055Z,68.41
2018-06-10T10:11:37.884Z,68.09
2018-06-10T10:12:37.933Z,68.8
2018-06-10T10:13:38.144Z,67.49
2018-06-10T10:14:38.731Z,67.58
2018-06-10T10:15:38.067Z,67.03
2018-06-10T10:16:38.201Z,67.39
2018-06-10T10:17:38.117Z,67.23
2018-06-10T10:18:37.941Z,66.71
2018-06-10T10:19:37.914Z,66.35
2018-06-10T10:20:37.874Z,66.52
2018-06-10T10:21:37.834Z,66.06
2018-06-10T10:22:38.019Z,66.33
2018-06-10T10:23:37.907Z,65.83
2018-06-10T10:24:38.026Z,66.45
2018-06-10T10:25:38.170Z,66.68
2018-06-10T10:26:38.029Z,65.81
2018-06-10T10:27:37.933Z,65.97
2018-06-10T10:28:37.945Z,66.91
2018-06-10T10:29:38.369Z,66.09
2018-06-10T10:30:38.157Z,66.66
2018-06-10T10:31:37.972Z,65.65
2018-06-10T10:32:37.938Z,65.64
2018-06-10T10:33:37.977Z,65.58
2018-06-10T10:34:37.880Z,65.83
2018-06-10T10:35:38.033Z,64.98
2018-06-10T10:36:37.943Z,64.46
2018-06-10T10:37:38.019Z,65.38
2018-06-10T10:38:38.266Z,64.79
2018-06-10T10:39:37.878Z,64.93
2018-06-10T10:40:37.821Z,64.81
2018-06-10T10:41:37.855Z,65.13
2018-06-10T10:42:37.991Z,65.06
2018-06-10T10:43:37.935Z,65.51
2018-06-10T10:44:37.845Z,65.19
2018-06-10T10:45:37.965Z,65.13
2018-06-10T10:46:38.063Z,65.74
2018-06-10T10:47:37.822Z,64.2
2018-06-10T10:48:37.838Z,62.49
2018-06-10T10:49:37.987Z,63.17
2018-06-10T10:50:37.937Z,61.59
2018-06-10T10:51:37.949Z,62.19
2018-06-10T10:52:37.865Z,62.24
2018-06-10T10:53:37.971Z,62.57
2018-06-10T10:54:37.945Z,63.81
2018-06-10T10:55:37.829Z,63.41
2018-06-10T10:57:11.867Z,63.59
2018-06-10T10:57:37.995Z,63.65
2018-06-10T10:59:37.841Z,64.05
2018-06-10T11:00:42.646Z,63.15
2018-06-10T11:01:37.854Z,61.72
2018-06-10T11:02:37.934Z,62.02
2018-06-10T11:03:38.729Z,62.24
2018-06-10T11:04:38.000Z,61.98
2018-06-10T11:05:37.820Z,61.51
2018-06-10T11:06:37.892Z,61.01
2018-06-10T11:07:37.849Z,62.04
2018-06-10T11:08:37.852Z,60.94
2018-06-10T11:09:37.965Z,60.93
2018-06-10T11:10:37.881Z,60.9
2018-06-10T11:11:38.053Z,60.39
2018-06-10T11:12:38.037Z,60.59
2018-06-10T11:13:37.861Z,60.39
2018-06-10T11:14:38.077Z,58.59
2018-06-10T11:15:37.888Z,59.31
2018-06-10T11:16:37.985Z,59.48
2018-06-10T11:17:37.903Z,58.99
2018-06-10T11:18:37.881Z,57.33
2018-06-10T11:19:39.034Z,57.24
2018-06-10T11:20:38.012Z,57.22
2018-06-10T11:21:37.865Z,57.61
2018-06-10T11:22:37.870Z,57.62
2018-06-10T11:23:37.865Z,57.87
2018-06-10T11:24:37.960Z,57.75
2018-06-10T11:25:37.855Z,57.82
2018-06-10T11:26:39.376Z,57.19
2018-06-10T11:27:37.932Z,57.34
2018-06-10T11:28:37.908Z,56.57
2018-06-10T11:29:37.916Z,57.23
2018-06-10T11:30:37.906Z,56.47
2018-06-10T11:31:38.361Z,55.43
2018-06-10T11:32:38.209Z,55.59
2018-06-10T11:33:37.881Z,55.23
2018-06-10T11:34:37.937Z,56.18
2018-06-10T11:35:37.919Z,56.08
2018-06-10T11:36:37.893Z,54.88
2018-06-10T11:37:37.955Z,54.8
2018-06-10T11:38:37.930Z,52.93
2018-06-10T11:39:37.893Z,52.06
2018-06-10T11:40:37.904Z,51.89
2018-06-10T11:41:38.031Z,52.87
2018-06-10T11:42:37.963Z,53.12
2018-06-10T11:43:37.987Z,53.67
2018-06-10T11:44:37.990Z,54.13
2018-06-10T11:45:37.996Z,53.78
2018-06-10T11:46:37.940Z,53.22
2018-06-10T11:47:37.894Z,53.89
2018-06-10T11:48:37.993Z,54.87
2018-06-10T11:49:37.927Z,53.15
2018-06-10T11:50:38.003Z,53.41
2018-06-10T11:51:38.062Z,52.47
2018-06-10T11:52:37.901Z,53.73
2018-06-10T11:53:38.028Z,53.13
2018-06-10T11:54:37.932Z,52.13
2018-06-10T11:55:37.948Z,51.39
2018-06-10T11:56:37.907Z,51.17
2018-06-10T11:57:37.922Z,51.31
2018-06-10T11:58:37.984Z,51.15
2018-06-10T11:59:38.171Z,51.47
2018-06-10T12:00:38.079Z,50.97
2018-06-10T12:02:37.916Z,51.72
2018-06-10T12:03:37.989Z,51.59
2018-06-10T12:04:38.095Z,51.29
2018-06-10T12:05:38.031Z,51.73
2018-06-10T12:06:37.997Z,52.04
2018-06-10T12:07:38.100Z,50.68
2018-06-10T12:08:37.946Z,49.94
2018-06-10T12:09:37.962Z,49.91
2018-06-10T12:10:38.286Z,51.04
2018-06-10T12:11:38.112Z,51.39
2018-06-10T12:12:37.936Z,51.45
2018-06-10T12:13:38.088Z,51.09
2018-06-10T12:14:37.968Z,51.86
2018-06-10T12:15:37.988Z,52.12
2018-06-10T12:16:42.382Z,52.15
2018-06-10T12:17:37.934Z,51.79
2018-06-10T12:18:37.955Z,50.75
2018-06-10T12:19:38.043Z,51.2
2018-06-10T12:20:37.976Z,51.61
2018-06-10T12:21:38.092Z,50.95
2018-06-10T12:22:38.483Z,51.95
2018-06-10T12:23:37.970Z,52.2
2018-06-10T12:24:37.973Z,51.56
2018-06-10T12:25:38.248Z,49.63
2018-06-10T12:26:37.974Z,49.09
2018-06-10T12:27:37.973Z,50.12
2018-06-10T12:28:37.949Z,50.79
2018-06-10T12:29:38.082Z,51.2
2018-06-10T12:30:38.144Z,52.07
2018-06-10T12:31:37.992Z,52.46
2018-06-10T12:32:37.971Z,51.65
2018-06-10T12:33:37.943Z,51.17
2018-06-10T12:34:38.034Z,51.68
2018-06-10T12:35:37.966Z,51.32
2018-06-10T12:36:38.019Z,51.48
2018-06-10T12:37:37.976Z,52.42
2018-06-10T12:38:38.067Z,52.93
2018-06-10T12:39:38.139Z,51.77
2018-06-10T12:40:37.964Z,52.47
2018-06-10T12:41:38.019Z,52.54
2018-06-10T12:42:37.997Z,51.13
2018-06-10T12:43:38.097Z,51.3
2018-06-10T12:44:38.168Z,51.35
2018-06-10T12:45:38.064Z,51.7
2018-06-10T12:46:38.035Z,52.06
2018-06-10T12:47:37.986Z,51.13
2018-06-10T12:48:37.984Z,50.31
2018-06-10T12:49:38.018Z,50.24
2018-06-10T12:50:38.018Z,50.38
2018-06-10T12:51:38.024Z,51.23
2018-06-10T12:52:38.011Z,48.7
2018-06-10T12:53:37.999Z,48.74
2018-06-10T12:54:38.047Z,48.93
2018-06-10T12:55:38.059Z,48.11
2018-06-10T12:56:38.130Z,49.32